createdAt,value
2022-08-24T00:04:09.087Z,-72.00
2022-08-24T00:09:16.259Z,-108.00
2022-08-24T00:14:23.496Z,-72.00
2022-08-24T00:19:30.675Z,-72.00
2022-08-24T00:24:37.926Z,-72.00
2022-08-24T00:29:45.252Z,-36.00
2022-08-24T00:34:58.558Z,-72.00
2022-08-24T00:39:59.722Z,-72.00
2022-08-24T00:45:06.878Z,-108.00
2022-08-24T00:50:14.051Z,-72.00
2022-08-24T00:55:21.232Z,-72.00
2022-08-24T01:00:28.469Z,-72.00
2022-08-24T01:05:35.629Z,-72.00
2022-08-24T01:10:42.864Z,-72.00
2022-08-24T01:15:50.124Z,-72.00
2022-08-24T01:20:57.273Z,-72.00
2022-08-24T01:26:04.422Z,-72.00
2022-08-24T01:31:11.637Z,-72.00
2022-08-24T01:36:18.825Z,-72.00
2022-08-24T01:41:29.099Z,-72.00
2022-08-24T01:46:33.257Z,-72.00
2022-08-24T01:51:41.651Z,-72.00
2022-08-24T01:56:48.868Z,-72.00
2022-08-24T02:01:56.135Z,-72.00
2022-08-24T02:07:03.227Z,-72.00
2022-08-24T02:12:10.418Z,-72.00
2022-08-24T02:17:17.592Z,-72.00
2022-08-24T02:22:24.755Z,-72.00
2022-08-24T02:27:32.027Z,-72.00
2022-08-24T02:32:39.281Z,-72.00
2022-08-24T02:37:46.506Z,-72.00
2022-08-24T02:42:55.675Z,-108.00
2022-08-24T02:48:02.930Z,-72.00
2022-08-24T02:53:10.114Z,-72.00
2022-08-24T02:58:17.379Z,-72.00
2022-08-24T03:03:24.545Z,-72.00
2022-08-24T03:08:31.748Z,-72.00
2022-08-24T03:13:38.951Z,-72.00
2022-08-24T03:18:46.130Z,-108.00
2022-08-24T03:23:53.307Z,-72.00
2022-08-24T03:29:00.486Z,-72.00
2022-08-24T03:34:07.691Z,-72.00
2022-08-24T03:39:14.881Z,-72.00
2022-08-24T03:44:23.337Z,-72.00
2022-08-24T03:49:29.268Z,-72.00
2022-08-24T03:54:36.513Z,-108.00
2022-08-24T03:59:46.823Z,-108.00
2022-08-24T04:04:51.198Z,-72.00
2022-08-24T04:09:58.375Z,-72.00
2022-08-24T04:15:05.607Z,-72.00
2022-08-24T04:20:12.844Z,0.00
2022-08-24T04:25:24.684Z,36.00
2022-08-24T04:30:27.203Z,108.00
2022-08-24T04:35:34.417Z,1188.00
2022-08-24T04:40:41.665Z,1620.00
2022-08-24T04:45:48.922Z,2052.00
2022-08-24T04:50:56.169Z,2520.00
2022-08-24T04:56:03.364Z,2916.00
2022-08-24T05:01:10.683Z,3276.00
2022-08-24T05:06:17.818Z,3672.00
2022-08-24T05:11:25.529Z,3996.00
2022-08-24T05:16:33.054Z,4320.00
2022-08-24T05:21:40.215Z,6300.00
2022-08-24T05:26:47.434Z,6732.00
2022-08-24T05:31:54.642Z,7128.00
2022-08-24T05:37:04.601Z,7164.00
2022-08-24T05:42:11.828Z,7272.00
2022-08-24T05:47:19.012Z,7776.00
2022-08-24T05:52:26.190Z,8100.00
2022-08-24T05:57:33.487Z,8244.00
2022-08-24T06:02:43.376Z,9036.00
2022-08-24T06:07:50.510Z,9432.00
2022-08-24T06:12:57.848Z,10008.00
2022-08-24T06:18:05.068Z,10332.00
2022-08-24T06:23:12.202Z,10152.00
2022-08-24T06:28:19.384Z,9936.00
2022-08-24T06:33:26.613Z,10044.00
2022-08-24T06:38:33.772Z,10224.00
2022-08-24T06:43:40.972Z,10512.00
2022-08-24T06:48:48.219Z,10620.00
2022-08-24T06:53:55.426Z,10800.00
2022-08-24T06:59:02.621Z,10872.00
2022-08-24T07:04:09.813Z,11268.00
2022-08-24T07:09:17.047Z,11016.00
2022-08-24T07:14:24.225Z,11304.00
2022-08-24T07:19:32.280Z,11484.00
2022-08-24T07:24:39.463Z,11448.00
2022-08-24T07:29:56.272Z,11268.00
2022-08-24T07:34:54.162Z,12312.00
2022-08-24T07:40:01.436Z,12384.00
2022-08-24T07:45:08.675Z,12708.00
2022-08-24T07:50:15.922Z,12816.00
2022-08-24T07:55:23.137Z,12780.00
2022-08-24T08:00:30.378Z,12708.00
2022-08-24T08:05:37.626Z,12420.00
2022-08-24T08:10:44.863Z,12672.00
2022-08-24T08:15:53.206Z,13320.00
2022-08-24T08:20:59.349Z,13428.00
2022-08-24T08:26:06.583Z,13500.00
2022-08-24T08:31:13.885Z,13536.00
2022-08-24T08:36:21.023Z,13428.00
2022-08-24T08:41:28.264Z,13608.00
2022-08-24T08:46:40.119Z,13788.00
2022-08-24T08:51:42.760Z,13680.00
2022-08-24T08:56:49.963Z,13428.00
2022-08-24T09:01:57.209Z,13356.00
2022-08-24T09:07:04.373Z,13392.00
2022-08-24T09:12:11.557Z,12780.00
2022-08-24T09:17:18.852Z,12960.00
2022-08-24T09:22:26.205Z,13140.00
2022-08-24T09:27:33.495Z,12780.00
2022-08-24T09:32:41.168Z,12816.00
2022-08-24T09:37:47.930Z,13644.00
2022-08-24T09:42:55.133Z,13284.00
2022-08-24T09:48:02.370Z,13068.00
2022-08-24T09:53:09.610Z,12744.00
2022-08-24T09:58:16.820Z,12672.00
2022-08-24T10:03:27.333Z,12852.00
2022-08-24T10:08:31.261Z,12960.00
2022-08-24T10:13:40.547Z,12888.00
2022-08-24T10:18:47.782Z,13068.00
2022-08-24T10:23:54.962Z,13032.00
2022-08-24T10:29:02.111Z,12492.00
2022-08-24T10:34:09.359Z,12204.00
2022-08-24T10:39:16.574Z,12744.00
2022-08-24T10:44:23.777Z,12528.00
2022-08-24T10:49:30.971Z,12744.00
2022-08-24T10:54:38.159Z,12924.00
2022-08-24T10:59:45.374Z,13068.00
2022-08-24T11:04:53.202Z,13104.00
2022-08-24T11:10:00.432Z,12528.00
2022-08-24T11:15:07.684Z,12996.00
2022-08-24T11:20:14.929Z,12816.00
2022-08-24T11:25:22.083Z,13356.00
2022-08-24T11:30:29.274Z,13428.00
2022-08-24T11:35:36.534Z,13248.00
2022-08-24T11:40:43.720Z,13320.00
2022-08-24T11:45:50.929Z,13392.00
2022-08-24T11:50:58.208Z,13572.00
2022-08-24T11:56:05.619Z,13392.00
2022-08-24T12:01:12.912Z,12960.00
2022-08-24T12:06:20.322Z,12384.00
2022-08-24T12:11:27.565Z,13968.00
2022-08-24T12:16:34.839Z,14508.00
2022-08-24T12:21:42.012Z,15120.00
2022-08-24T12:26:49.460Z,14508.00
2022-08-24T12:31:56.742Z,14328.00
2022-08-24T12:37:04.811Z,13932.00
2022-08-24T12:42:15.743Z,13176.00
2022-08-24T12:47:18.616Z,12600.00
2022-08-24T12:52:25.838Z,12276.00
2022-08-24T12:57:33.092Z,11952.00
2022-08-24T13:02:44.362Z,11664.00
2022-08-24T13:07:47.557Z,11376.00
2022-08-24T13:12:54.833Z,11124.00
2022-08-24T13:18:03.511Z,11124.00
2022-08-24T13:23:09.277Z,10872.00
2022-08-24T13:28:16.500Z,10764.00
2022-08-24T13:33:23.656Z,10332.00
2022-08-24T13:38:30.888Z,10404.00
2022-08-24T13:43:38.740Z,10656.00
2022-08-24T13:48:45.866Z,10620.00
2022-08-24T13:53:53.141Z,10944.00
2022-08-24T13:59:00.315Z,10800.00
2022-08-24T14:04:07.563Z,10332.00
2022-08-24T14:09:14.767Z,11124.00
2022-08-24T14:14:21.959Z,11232.00
2022-08-24T14:19:29.160Z,10764.00
2022-08-24T14:24:36.377Z,10836.00
2022-08-24T14:29:43.628Z,10800.00
2022-08-24T14:34:50.806Z,10836.00
2022-08-24T14:39:58.245Z,10800.00
2022-08-24T14:45:05.438Z,10872.00
2022-08-24T14:50:15.969Z,11304.00
2022-08-24T14:55:23.214Z,11700.00
2022-08-24T15:00:30.486Z,11592.00
2022-08-24T15:05:37.821Z,12348.00
2022-08-24T15:10:44.926Z,12924.00
2022-08-24T15:15:53.833Z,12600.00
2022-08-24T15:21:00.989Z,13212.00
2022-08-24T15:26:08.270Z,12888.00
2022-08-24T15:31:15.571Z,12960.00
2022-08-24T15:36:22.700Z,13788.00
2022-08-24T15:41:29.955Z,13392.00
2022-08-24T15:46:37.241Z,12996.00
2022-08-24T15:51:44.374Z,12204.00
2022-08-24T15:56:51.588Z,12780.00
2022-08-24T16:01:58.829Z,12924.00
2022-08-24T16:07:06.112Z,11952.00
2022-08-24T16:12:14.040Z,13932.00
2022-08-24T16:17:20.750Z,14256.00
2022-08-24T16:22:27.934Z,11664.00
2022-08-24T16:27:35.122Z,12996.00
2022-08-24T16:32:51.662Z,11844.00
2022-08-24T16:37:49.667Z,11700.00
2022-08-24T16:42:56.867Z,10152.00
2022-08-24T16:48:04.323Z,9360.00
2022-08-24T16:53:11.211Z,9288.00
2022-08-24T16:58:18.449Z,8352.00
2022-08-24T17:03:25.701Z,8532.00
2022-08-24T17:08:32.912Z,7992.00
2022-08-24T17:13:49.824Z,6228.00
2022-08-24T17:18:47.343Z,5760.00
2022-08-24T17:23:54.544Z,4752.00
2022-08-24T17:29:01.809Z,4284.00
2022-08-24T17:34:09.006Z,3708.00
2022-08-24T17:39:16.196Z,3240.00
2022-08-24T17:44:23.395Z,2844.00
2022-08-24T17:49:30.559Z,2448.00
2022-08-24T17:54:37.780Z,2052.00
2022-08-24T17:59:44.980Z,1656.00
2022-08-24T18:04:52.195Z,1368.00
2022-08-24T18:09:59.379Z,1044.00
2022-08-24T18:15:06.541Z,612.00
2022-08-24T18:20:13.730Z,324.00
2022-08-24T18:25:20.892Z,144.00
2022-08-24T18:30:30.491Z,36.00
2022-08-24T18:35:35.316Z,-36.00
2022-08-24T18:40:52.376Z,-36.00
2022-08-24T18:45:49.816Z,-72.00
2022-08-24T18:50:59.587Z,-72.00
2022-08-24T18:56:11.777Z,-72.00
2022-08-24T19:01:14.189Z,-72.00
2022-08-24T19:06:21.435Z,-72.00
2022-08-24T19:11:28.710Z,-72.00
2022-08-24T19:16:36.241Z,-72.00
2022-08-24T19:21:43.537Z,-36.00
2022-08-24T19:26:51.008Z,-72.00
2022-08-24T19:31:58.775Z,-72.00
2022-08-24T19:37:06.208Z,-72.00
2022-08-24T19:42:13.632Z,-72.00
2022-08-24T19:47:21.265Z,-72.00
2022-08-24T19:52:28.710Z,-72.00
2022-08-24T19:57:35.913Z,-72.00
2022-08-24T20:02:43.218Z,-72.00
2022-08-24T20:07:50.457Z,-72.00
2022-08-24T20:12:57.687Z,-72.00
2022-08-24T20:18:04.942Z,-72.00
2022-08-24T20:23:12.133Z,-72.00
2022-08-24T20:28:29.313Z,-72.00
2022-08-24T20:33:26.513Z,-72.00
2022-08-24T20:38:33.786Z,-72.00
2022-08-24T20:43:41.040Z,-72.00
2022-08-24T20:48:55.326Z,-72.00
2022-08-24T20:53:55.454Z,-72.00
2022-08-24T20:59:02.636Z,-72.00
2022-08-24T21:04:09.965Z,-72.00
2022-08-24T21:09:17.075Z,-72.00
2022-08-24T21:14:24.286Z,-72.00
2022-08-24T21:19:32.281Z,-72.00
2022-08-24T21:24:39.454Z,-72.00
2022-08-24T21:29:46.655Z,-72.00
2022-08-24T21:34:53.845Z,-72.00
2022-08-24T21:40:01.157Z,-36.00
2022-08-24T21:45:08.196Z,-36.00
2022-08-24T21:50:15.407Z,-36.00
2022-08-24T21:55:22.559Z,-72.00
2022-08-24T22:00:29.763Z,-72.00
2022-08-24T22:05:36.937Z,-36.00
2022-08-24T22:10:44.201Z,-36.00
2022-08-24T22:15:51.501Z,-36.00
2022-08-24T22:20:58.604Z,-36.00
2022-08-24T22:26:05.749Z,-36.00
2022-08-24T22:31:13.032Z,1404.00
2022-08-24T22:36:20.147Z,1512.00
2022-08-24T22:41:27.341Z,1080.00
2022-08-24T22:46:34.592Z,1008.00
2022-08-24T22:51:41.701Z,-36.00
2022-08-24T22:56:48.909Z,-36.00
2022-08-24T23:01:56.263Z,-72.00
2022-08-24T23:07:03.356Z,-36.00
2022-08-24T23:12:10.544Z,-36.00
2022-08-24T23:17:17.705Z,-36.00
2022-08-24T23:22:25.689Z,-36.00
2022-08-24T23:27:33.049Z,-36.00
2022-08-24T23:32:39.384Z,-36.00
2022-08-24T23:37:46.602Z,-36.00
2022-08-24T23:42:53.812Z,-72.00
2022-08-24T23:48:01.052Z,-72.00
2022-08-24T23:53:08.336Z,-72.00
2022-08-24T23:58:15.552Z,-72.00
